createdAt,value
2023-03-13T00:01:48.677Z,76.98
2023-03-13T00:06:48.540Z,76.43
2023-03-13T00:11:48.453Z,77.35
2023-03-13T00:16:48.440Z,77.49
2023-03-13T00:21:48.357Z,78.11
2023-03-13T00:26:48.301Z,77.66
2023-03-13T00:31:48.276Z,79.43
2023-03-13T00:36:48.377Z,79.19
2023-03-13T00:41:48.120Z,79.70
2023-03-13T00:46:48.157Z,80.11
2023-03-13T00:51:56.969Z,79.16
2023-03-13T00:56:47.987Z,80.21
2023-03-13T01:01:47.941Z,80.69
2023-03-13T01:06:47.889Z,81.44
2023-03-13T01:11:47.830Z,82.91
2023-03-13T01:16:47.770Z,84.14
2023-03-13T01:21:47.731Z,84.44
2023-03-13T01:26:47.621Z,85.26
2023-03-13T01:31:47.583Z,87.04
2023-03-13T01:36:47.531Z,88.06
2023-03-13T01:41:47.480Z,89.23
2023-03-13T01:46:47.493Z,88.88
2023-03-13T01:51:47.357Z,89.80
2023-03-13T01:56:47.331Z,89.18
2023-03-13T02:01:47.335Z,89.84
2023-03-13T02:06:47.196Z,90.56
2023-03-13T02:11:47.118Z,90.97
2023-03-13T02:16:47.310Z,90.77
2023-03-13T02:21:47.035Z,91.89
2023-03-13T02:26:46.959Z,91.78
2023-03-13T02:31:47.180Z,91.27
2023-03-13T02:36:46.935Z,91.07
2023-03-13T02:41:47.813Z,91.17
2023-03-13T02:46:46.817Z,91.48
2023-03-13T02:51:46.688Z,92.40
2023-03-13T02:56:46.619Z,91.44
2023-03-13T03:01:46.717Z,91.85
2023-03-13T03:06:46.494Z,91.95
2023-03-13T03:11:46.520Z,92.15
2023-03-13T03:16:46.466Z,92.15
2023-03-13T03:21:46.373Z,92.97
2023-03-13T03:26:46.292Z,92.83
2023-03-13T03:31:46.259Z,92.56
2023-03-13T03:36:46.252Z,92.21
2023-03-13T03:41:46.101Z,92.21
2023-03-13T03:46:46.109Z,92.52
2023-03-13T03:51:46.068Z,92.21
2023-03-13T03:56:46.017Z,92.32
2023-03-13T04:01:45.932Z,92.52
2023-03-13T04:06:45.857Z,92.17
2023-03-13T04:11:45.771Z,92.17
2023-03-13T04:16:45.764Z,92.37
2023-03-13T04:21:45.676Z,92.13
2023-03-13T04:26:45.638Z,92.88
2023-03-13T04:31:45.588Z,92.74
2023-03-13T04:36:45.525Z,92.43
2023-03-13T04:41:45.445Z,92.13
2023-03-13T04:46:45.355Z,93.35
2023-03-13T04:51:45.347Z,93.15
2023-03-13T04:56:45.346Z,92.43
2023-03-13T05:01:45.247Z,93.05
2023-03-13T05:06:45.210Z,93.05
2023-03-13T05:11:45.114Z,91.67
2023-03-13T05:16:45.114Z,92.49
2023-03-13T05:21:45.022Z,91.83
2023-03-13T05:26:44.944Z,92.08
2023-03-13T05:31:44.893Z,91.83
2023-03-13T05:36:44.850Z,92.65
2023-03-13T05:41:44.780Z,92.65
2023-03-13T05:46:44.797Z,92.41
2023-03-13T05:51:48.476Z,92.16
2023-03-13T05:56:45.591Z,92.36
2023-03-13T06:01:44.744Z,91.65
2023-03-13T06:06:44.605Z,91.81
2023-03-13T06:11:44.668Z,91.50
2023-03-13T06:16:44.719Z,91.61
2023-03-13T06:21:45.260Z,91.56
2023-03-13T06:26:44.304Z,91.05
2023-03-13T06:31:44.332Z,89.99
2023-03-13T06:36:44.243Z,89.89
2023-03-13T06:41:44.183Z,90.50
2023-03-13T06:46:44.101Z,89.95
2023-03-13T06:51:44.015Z,89.14
2023-03-13T06:56:43.927Z,88.93
2023-03-13T07:01:53.249Z,88.18
2023-03-13T07:06:43.851Z,88.08
2023-03-13T07:11:43.886Z,87.98
2023-03-13T07:16:43.808Z,87.12
2023-03-13T07:21:43.706Z,86.71
2023-03-13T07:26:57.697Z,86.51
2023-03-13T07:31:44.607Z,85.25
2023-03-13T07:36:43.609Z,85.15
2023-03-13T07:41:43.477Z,85.01
2023-03-13T07:46:43.378Z,83.69
2023-03-13T07:51:44.474Z,83.48
2023-03-13T07:56:43.278Z,82.87
2023-03-13T08:01:43.240Z,82.12
2023-03-13T08:06:43.164Z,81.62
2023-03-13T08:11:43.139Z,81.01
2023-03-13T08:16:43.146Z,81.11
2023-03-13T08:21:43.061Z,81.52
2023-03-13T08:26:42.947Z,81.31
2023-03-13T08:31:42.906Z,80.80
2023-03-13T08:36:42.865Z,82.03
2023-03-13T08:41:42.773Z,81.01
2023-03-13T08:46:42.817Z,80.46
2023-03-13T08:51:42.661Z,81.41
2023-03-13T08:56:42.655Z,80.19
2023-03-13T09:01:42.569Z,79.61
2023-03-13T09:06:42.541Z,80.26
2023-03-13T09:11:42.503Z,80.32
2023-03-13T09:16:42.417Z,79.58
2023-03-13T09:21:42.338Z,79.24
2023-03-13T09:26:48.963Z,79.50
2023-03-13T09:31:43.244Z,79.40
2023-03-13T09:36:42.162Z,79.40
2023-03-13T09:41:42.120Z,80.62
2023-03-13T09:46:42.134Z,80.62
2023-03-13T09:51:42.040Z,81.52
2023-03-13T09:56:41.953Z,80.98
2023-03-13T10:01:41.923Z,80.27
2023-03-13T10:06:41.860Z,81.63
2023-03-13T10:11:41.823Z,81.63
2023-03-13T10:16:41.759Z,80.94
2023-03-13T10:21:41.668Z,77.87
2023-03-13T10:26:41.618Z,78.44
2023-03-13T10:31:41.652Z,76.89
2023-03-13T10:36:41.534Z,76.52
2023-03-13T10:41:41.431Z,76.93
2023-03-13T10:46:41.436Z,75.71
2023-03-13T10:51:41.347Z,75.92
2023-03-13T10:56:41.284Z,76.28
2023-03-13T11:01:41.258Z,74.90
2023-03-13T11:06:41.209Z,75.21
2023-03-13T11:11:41.157Z,74.66
2023-03-13T11:16:41.191Z,74.84
2023-03-13T11:21:41.037Z,73.49
2023-03-13T11:26:40.994Z,73.89
2023-03-13T11:31:40.968Z,73.11
2023-03-13T11:36:40.868Z,72.78
2023-03-13T11:41:40.812Z,72.54
2023-03-13T11:46:40.939Z,70.53
2023-03-13T11:51:40.698Z,71.84
2023-03-13T11:56:40.628Z,71.44
2023-03-13T12:01:40.565Z,70.59
2023-03-13T12:06:40.522Z,68.21
2023-03-13T12:11:40.424Z,68.88
2023-03-13T12:16:40.507Z,70.62
2023-03-13T12:21:40.460Z,69.72
2023-03-13T12:26:40.311Z,69.59
2023-03-13T12:31:40.227Z,67.67
2023-03-13T12:36:40.176Z,67.63
2023-03-13T12:41:40.134Z,66.97
2023-03-13T12:46:40.204Z,66.83
2023-03-13T12:51:40.021Z,67.80
2023-03-13T12:56:39.946Z,66.83
2023-03-13T13:01:39.966Z,67.23
2023-03-13T13:06:39.960Z,67.50
2023-03-13T13:11:39.833Z,66.90
2023-03-13T13:16:39.752Z,67.03
2023-03-13T13:21:40.726Z,68.14
2023-03-13T13:26:39.627Z,68.21
2023-03-13T13:31:39.646Z,66.80
2023-03-13T13:36:39.575Z,67.10
2023-03-13T13:41:39.587Z,66.83
2023-03-13T13:46:39.454Z,65.59
2023-03-13T13:51:39.451Z,66.22
2023-03-13T13:56:39.397Z,66.09
2023-03-13T14:01:39.290Z,65.26
2023-03-13T14:06:39.166Z,65.06
2023-03-13T14:11:39.174Z,65.49
2023-03-13T14:16:39.164Z,66.02
2023-03-13T14:21:39.043Z,67.07
2023-03-13T14:26:38.976Z,67.23
2023-03-13T14:31:38.993Z,66.02
2023-03-13T14:36:38.853Z,66.50
2023-03-13T14:41:38.814Z,67.40
2023-03-13T14:46:38.804Z,66.83
2023-03-13T14:51:38.745Z,66.56
2023-03-13T14:56:38.612Z,67.57
2023-03-13T15:01:38.596Z,67.90
2023-03-13T15:06:38.695Z,68.61
2023-03-13T15:11:38.576Z,68.21
2023-03-13T15:16:38.533Z,67.16
2023-03-13T15:21:38.399Z,67.27
2023-03-13T15:26:38.310Z,67.30
2023-03-13T15:31:38.325Z,67.43
2023-03-13T15:36:38.182Z,66.22
2023-03-13T15:41:38.181Z,66.59
2023-03-13T15:46:38.108Z,65.48
2023-03-13T15:51:38.102Z,66.59
2023-03-13T15:56:38.048Z,65.78
2023-03-13T16:01:38.019Z,66.16
2023-03-13T16:06:37.875Z,66.08
2023-03-13T16:11:37.880Z,65.28
2023-03-13T16:16:38.081Z,66.72
2023-03-13T16:21:37.832Z,66.08
2023-03-13T16:26:37.679Z,67.36
2023-03-13T16:31:37.624Z,66.78
2023-03-13T16:36:37.525Z,66.48
2023-03-13T16:41:37.535Z,67.43
2023-03-13T16:46:37.475Z,66.55
2023-03-13T16:51:37.380Z,66.61
2023-03-13T16:56:37.303Z,68.23
2023-03-13T17:01:37.246Z,69.38
2023-03-13T17:06:37.367Z,69.81
2023-03-13T17:11:37.307Z,69.71
2023-03-13T17:16:37.198Z,70.32
2023-03-13T17:21:37.138Z,70.39
2023-03-13T17:26:39.067Z,70.29
2023-03-13T17:31:37.081Z,69.98
2023-03-13T17:36:37.074Z,69.48
2023-03-13T17:41:36.787Z,69.88
2023-03-13T17:46:36.781Z,70.32
2023-03-13T17:51:36.676Z,70.21
2023-03-13T17:56:36.797Z,70.12
2023-03-13T18:01:36.852Z,70.45
2023-03-13T18:06:36.710Z,70.45
2023-03-13T18:11:36.580Z,70.28
2023-03-13T18:16:36.412Z,70.56
2023-03-13T18:21:36.385Z,71.09
2023-03-13T18:26:37.312Z,71.64
2023-03-13T18:31:36.424Z,72.25
2023-03-13T18:36:36.261Z,72.65
2023-03-13T18:41:36.179Z,72.78
2023-03-13T18:46:36.197Z,72.55
2023-03-13T18:51:36.027Z,72.58
2023-03-13T18:56:35.971Z,72.55
2023-03-13T19:01:35.988Z,72.14
2023-03-13T19:06:35.931Z,71.84
2023-03-13T19:11:35.938Z,71.53
2023-03-13T19:16:35.974Z,72.17
2023-03-13T19:21:35.694Z,72.08
2023-03-13T19:26:35.673Z,73.09
2023-03-13T19:31:35.615Z,72.69
2023-03-13T19:36:36.342Z,72.48
2023-03-13T19:41:35.579Z,72.69
2023-03-13T19:46:35.683Z,72.48
2023-03-13T19:51:35.524Z,72.82
2023-03-13T19:56:35.322Z,73.29
2023-03-13T20:01:35.286Z,72.38
2023-03-13T20:06:35.211Z,73.13
2023-03-13T20:11:35.275Z,73.53
2023-03-13T20:16:35.462Z,74.31
2023-03-13T20:21:35.033Z,74.41
2023-03-13T20:26:34.989Z,74.52
2023-03-13T20:31:34.954Z,75.57
2023-03-13T20:36:34.928Z,74.62
2023-03-13T20:41:35.090Z,75.16
2023-03-13T20:46:34.825Z,75.26
2023-03-13T20:51:34.876Z,75.30
2023-03-13T20:56:34.730Z,75.60
2023-03-13T21:01:34.630Z,75.09
2023-03-13T21:06:34.525Z,75.74
2023-03-13T21:11:34.518Z,75.84
2023-03-13T21:16:34.627Z,75.64
2023-03-13T21:21:34.469Z,76.59
2023-03-13T21:26:34.566Z,76.65
2023-03-13T21:31:34.481Z,76.45
2023-03-13T21:36:34.218Z,75.40
2023-03-13T21:41:34.167Z,75.54
2023-03-13T21:46:34.180Z,75.95
2023-03-13T21:51:34.166Z,75.74
2023-03-13T21:56:34.174Z,75.47
2023-03-13T22:01:34.138Z,76.39
2023-03-13T22:06:33.891Z,76.08
2023-03-13T22:11:34.031Z,76.53
2023-03-13T22:16:33.739Z,77.14
2023-03-13T22:21:33.736Z,76.59
2023-03-13T22:26:33.660Z,76.28
2023-03-13T22:31:33.691Z,76.79
2023-03-13T22:36:33.561Z,76.59
2023-03-13T22:41:33.509Z,76.90
2023-03-13T22:46:33.439Z,76.73
2023-03-13T22:51:33.399Z,76.39
2023-03-13T22:56:33.347Z,76.93
2023-03-13T23:01:33.301Z,75.98
2023-03-13T23:06:33.358Z,76.01
2023-03-13T23:11:33.180Z,75.78
2023-03-13T23:16:33.091Z,76.53
2023-03-13T23:21:33.133Z,77.17
2023-03-13T23:26:33.209Z,77.37
2023-03-13T23:31:32.921Z,76.35
2023-03-13T23:36:32.970Z,76.87
2023-03-13T23:41:32.811Z,76.76
2023-03-13T23:46:32.849Z,76.66
2023-03-13T23:51:32.817Z,76.66
2023-03-13T23:56:32.669Z,75.95
